sensor_id;sensor_type;location;lat;lon;timestamp;P1;durP1;ratioP1;P2;durP2;ratioP2
51082;SDS011;37131;42.694;23.350;2023-10-13T00:00:31;35.42;;;25.52;;
51082;SDS011;37131;42.694;23.350;2023-10-13T00:03:01;34.95;;;25.30;;
51082;SDS011;37131;42.694;23.350;2023-10-13T00:05:28;36.50;;;26.25;;
51082;SDS011;37131;42.694;23.350;2023-10-13T00:07:55;37.42;;;26.35;;
51082;SDS011;37131;42.694;23.350;2023-10-13T00:10:28;35.80;;;25.08;;
51082;SDS011;37131;42.694;23.350;2023-10-13T00:12:54;33.65;;;24.75;;
51082;SDS011;37131;42.694;23.350;2023-10-13T00:15:30;35.17;;;25.67;;
51082;SDS011;37131;42.694;23.350;2023-10-13T00:18:03;37.53;;;25.63;;
51082;SDS011;37131;42.694;23.350;2023-10-13T00:20:37;34.40;;;24.83;;
51082;SDS011;37131;42.694;23.350;2023-10-13T00:23:03;36.85;;;25.60;;
51082;SDS011;37131;42.694;23.350;2023-10-13T00:25:28;37.42;;;25.80;;
51082;SDS011;37131;42.694;23.350;2023-10-13T00:28:04;37.65;;;26.48;;
51082;SDS011;37131;42.694;23.350;2023-10-13T00:30:33;36.95;;;26.23;;
51082;SDS011;37131;42.694;23.350;2023-10-13T00:32:59;40.15;;;25.92;;
51082;SDS011;37131;42.694;23.350;2023-10-13T00:35:28;37.33;;;26.42;;
51082;SDS011;37131;42.694;23.350;2023-10-13T00:38:00;36.53;;;25.77;;
51082;SDS011;37131;42.694;23.350;2023-10-13T00:40:37;34.65;;;25.45;;
51082;SDS011;37131;42.694;23.350;2023-10-13T00:43:04;33.83;;;25.30;;
51082;SDS011;37131;42.694;23.350;2023-10-13T00:45:46;34.35;;;24.95;;
51082;SDS011;37131;42.694;23.350;2023-10-13T00:48:32;34.55;;;24.83;;
51082;SDS011;37131;42.694;23.350;2023-10-13T00:51:00;31.58;;;24.00;;
51082;SDS011;37131;42.694;23.350;2023-10-13T00:53:32;35.58;;;25.45;;
51082;SDS011;37131;42.694;23.350;2023-10-13T00:56:01;36.60;;;26.23;;
51082;SDS011;37131;42.694;23.350;2023-10-13T00:58:35;46.47;;;26.00;;
51082;SDS011;37131;42.694;23.350;2023-10-13T01:01:04;34.53;;;25.30;;
51082;SDS011;37131;42.694;23.350;2023-10-13T01:03:48;33.75;;;24.63;;
51082;SDS011;37131;42.694;23.350;2023-10-13T01:06:18;36.13;;;25.75;;
51082;SDS011;37131;42.694;23.350;2023-10-13T01:08:45;36.97;;;23.80;;
51082;SDS011;37131;42.694;23.350;2023-10-13T01:11:16;35.28;;;25.10;;
51082;SDS011;37131;42.694;23.350;2023-10-13T01:13:44;34.47;;;24.33;;
51082;SDS011;37131;42.694;23.350;2023-10-13T01:16:12;31.05;;;22.77;;
51082;SDS011;37131;42.694;23.350;2023-10-13T01:18:37;41.88;;;27.58;;
51082;SDS011;37131;42.694;23.350;2023-10-13T01:21:13;37.20;;;25.85;;
51082;SDS011;37131;42.694;23.350;2023-10-13T01:23:42;30.10;;;22.33;;
51082;SDS011;37131;42.694;23.350;2023-10-13T01:26:09;39.72;;;26.85;;
51082;SDS011;37131;42.694;23.350;2023-10-13T01:28:37;36.85;;;26.40;;
51082;SDS011;37131;42.694;23.350;2023-10-13T01:31:10;37.00;;;26.30;;
51082;SDS011;37131;42.694;23.350;2023-10-13T01:33:38;35.35;;;25.42;;
51082;SDS011;37131;42.694;23.350;2023-10-13T01:36:03;37.80;;;26.05;;
51082;SDS011;37131;42.694;23.350;2023-10-13T01:38:32;35.60;;;24.73;;
51082;SDS011;37131;42.694;23.350;2023-10-13T01:40:58;25.48;;;18.05;;
51082;SDS011;37131;42.694;23.350;2023-10-13T01:43:24;28.73;;;19.98;;
51082;SDS011;37131;42.694;23.350;2023-10-13T01:45:50;32.40;;;23.48;;
51082;SDS011;37131;42.694;23.350;2023-10-13T01:48:15;22.30;;;17.50;;
51082;SDS011;37131;42.694;23.350;2023-10-13T01:50:44;29.92;;;21.98;;
51082;SDS011;37131;42.694;23.350;2023-10-13T01:53:17;33.63;;;21.88;;
51082;SDS011;37131;42.694;23.350;2023-10-13T01:55:44;29.38;;;20.90;;
51082;SDS011;37131;42.694;23.350;2023-10-13T01:58:10;4.72;;;3.20;;
51082;SDS011;37131;42.694;23.350;2023-10-13T02:00:47;4.85;;;2.72;;
51082;SDS011;37131;42.694;23.350;2023-10-13T02:03:13;4.30;;;2.50;;
51082;SDS011;37131;42.694;23.350;2023-10-13T02:05:43;4.25;;;2.75;;
51082;SDS011;37131;42.694;23.350;2023-10-13T02:08:16;6.93;;;3.38;;
51082;SDS011;37131;42.694;23.350;2023-10-13T02:10:50;4.90;;;2.50;;
51082;SDS011;37131;42.694;23.350;2023-10-13T02:13:20;6.50;;;3.67;;
51082;SDS011;37131;42.694;23.350;2023-10-13T02:15:47;6.57;;;3.40;;
51082;SDS011;37131;42.694;23.350;2023-10-13T02:18:17;13.25;;;5.85;;
51082;SDS011;37131;42.694;23.350;2023-10-13T02:20:51;6.85;;;5.50;;
51082;SDS011;37131;42.694;23.350;2023-10-13T02:23:23;7.80;;;6.97;;
51082;SDS011;37131;42.694;23.350;2023-10-13T02:25:50;18.95;;;10.55;;
51082;SDS011;37131;42.694;23.350;2023-10-13T02:28:26;5.50;;;4.95;;
51082;SDS011;37131;42.694;23.350;2023-10-13T02:30:55;12.43;;;7.65;;
51082;SDS011;37131;42.694;23.350;2023-10-13T02:33:22;10.88;;;2.47;;
51082;SDS011;37131;42.694;23.350;2023-10-13T02:35:55;15.32;;;4.38;;
51082;SDS011;37131;42.694;23.350;2023-10-13T02:38:33;6.30;;;3.20;;
51082;SDS011;37131;42.694;23.350;2023-10-13T02:41:09;6.03;;;3.03;;
51082;SDS011;37131;42.694;23.350;2023-10-13T02:43:36;8.35;;;3.63;;
51082;SDS011;37131;42.694;23.350;2023-10-13T02:46:03;5.68;;;3.72;;
51082;SDS011;37131;42.694;23.350;2023-10-13T02:48:29;6.53;;;4.00;;
51082;SDS011;37131;42.694;23.350;2023-10-13T02:51:03;15.65;;;5.15;;
51082;SDS011;37131;42.694;23.350;2023-10-13T02:53:33;7.97;;;3.55;;
51082;SDS011;37131;42.694;23.350;2023-10-13T02:55:58;5.57;;;2.08;;
51082;SDS011;37131;42.694;23.350;2023-10-13T02:58:29;4.55;;;2.78;;
51082;SDS011;37131;42.694;23.350;2023-10-13T03:01:04;6.72;;;6.13;;
51082;SDS011;37131;42.694;23.350;2023-10-13T03:03:49;5.47;;;4.97;;
51082;SDS011;37131;42.694;23.350;2023-10-13T03:06:17;6.45;;;5.85;;
51082;SDS011;37131;42.694;23.350;2023-10-13T03:08:46;6.90;;;6.35;;
51082;SDS011;37131;42.694;23.350;2023-10-13T03:11:12;8.55;;;7.80;;
51082;SDS011;37131;42.694;23.350;2023-10-13T03:13:39;8.25;;;7.55;;
51082;SDS011;37131;42.694;23.350;2023-10-13T03:16:15;9.52;;;8.73;;
51082;SDS011;37131;42.694;23.350;2023-10-13T03:18:48;9.48;;;8.68;;
51082;SDS011;37131;42.694;23.350;2023-10-13T03:21:19;16.00;;;10.02;;
51082;SDS011;37131;42.694;23.350;2023-10-13T03:23:55;8.45;;;7.68;;
51082;SDS011;37131;42.694;23.350;2023-10-13T03:26:23;14.05;;;5.78;;
51082;SDS011;37131;42.694;23.350;2023-10-13T03:28:49;5.15;;;4.03;;
51082;SDS011;37131;42.694;23.350;2023-10-13T03:31:18;21.58;;;4.70;;
51082;SDS011;37131;42.694;23.350;2023-10-13T03:33:44;7.93;;;2.72;;
51082;SDS011;37131;42.694;23.350;2023-10-13T03:36:11;5.90;;;2.13;;
51082;SDS011;37131;42.694;23.350;2023-10-13T03:38:58;3.95;;;1.92;;
51082;SDS011;37131;42.694;23.350;2023-10-13T03:41:23;4.93;;;2.40;;
51082;SDS011;37131;42.694;23.350;2023-10-13T03:43:55;4.28;;;1.95;;
51082;SDS011;37131;42.694;23.350;2023-10-13T03:46:34;4.05;;;1.60;;
51082;SDS011;37131;42.694;23.350;2023-10-13T03:49:01;3.47;;;2.03;;
51082;SDS011;37131;42.694;23.350;2023-10-13T03:51:31;4.30;;;1.95;;
51082;SDS011;37131;42.694;23.350;2023-10-13T03:53:56;5.18;;;2.83;;
51082;SDS011;37131;42.694;23.350;2023-10-13T03:56:28;5.93;;;2.80;;
51082;SDS011;37131;42.694;23.350;2023-10-13T03:59:06;3.13;;;1.80;;
51082;SDS011;37131;42.694;23.350;2023-10-13T04:01:35;20.13;;;3.08;;
51082;SDS011;37131;42.694;23.350;2023-10-13T04:04:13;4.32;;;1.83;;
51082;SDS011;37131;42.694;23.350;2023-10-13T04:06:43;6.47;;;3.30;;
51082;SDS011;37131;42.694;23.350;2023-10-13T04:12:05;3.75;;;2.10;;
51082;SDS011;37131;42.694;23.350;2023-10-13T04:14:39;5.03;;;2.72;;
51082;SDS011;37131;42.694;23.350;2023-10-13T04:17:40;3.72;;;1.98;;
51082;SDS011;37131;42.694;23.350;2023-10-13T04:20:09;15.85;;;3.67;;
51082;SDS011;37131;42.694;23.350;2023-10-13T04:25:13;5.38;;;2.75;;
51082;SDS011;37131;42.694;23.350;2023-10-13T04:28:03;3.92;;;2.55;;
51082;SDS011;37131;42.694;23.350;2023-10-13T04:33:26;7.30;;;3.00;;
51082;SDS011;37131;42.694;23.350;2023-10-13T04:36:11;4.20;;;2.13;;
51082;SDS011;37131;42.694;23.350;2023-10-13T04:38:53;4.03;;;2.13;;
51082;SDS011;37131;42.694;23.350;2023-10-13T04:41:31;5.30;;;3.20;;
51082;SDS011;37131;42.694;23.350;2023-10-13T04:44:15;5.57;;;2.55;;
51082;SDS011;37131;42.694;23.350;2023-10-13T04:47:00;5.95;;;3.60;;
51082;SDS011;37131;42.694;23.350;2023-10-13T04:49:26;6.72;;;2.50;;
51082;SDS011;37131;42.694;23.350;2023-10-13T04:54:37;4.85;;;3.53;;
51082;SDS011;37131;42.694;23.350;2023-10-13T04:57:14;17.15;;;5.75;;
51082;SDS011;37131;42.694;23.350;2023-10-13T04:59:59;6.55;;;2.67;;
51082;SDS011;37131;42.694;23.350;2023-10-13T05:02:29;4.80;;;2.33;;
51082;SDS011;37131;42.694;23.350;2023-10-13T05:05:10;7.10;;;2.67;;
51082;SDS011;37131;42.694;23.350;2023-10-13T05:07:43;5.25;;;1.92;;
51082;SDS011;37131;42.694;23.350;2023-10-13T05:10:28;5.72;;;2.75;;
51082;SDS011;37131;42.694;23.350;2023-10-13T05:13:12;14.45;;;4.32;;
51082;SDS011;37131;42.694;23.350;2023-10-13T05:15:56;4.57;;;2.45;;
51082;SDS011;37131;42.694;23.350;2023-10-13T05:18:40;7.63;;;2.70;;
51082;SDS011;37131;42.694;23.350;2023-10-13T05:21:24;7.18;;;3.38;;
51082;SDS011;37131;42.694;23.350;2023-10-13T05:24:08;4.82;;;2.70;;
51082;SDS011;37131;42.694;23.350;2023-10-13T05:26:52;13.70;;;3.90;;
51082;SDS011;37131;42.694;23.350;2023-10-13T05:29:43;3.10;;;1.92;;
51082;SDS011;37131;42.694;23.350;2023-10-13T05:32:30;5.38;;;2.38;;
51082;SDS011;37131;42.694;23.350;2023-10-13T05:35:14;5.38;;;3.05;;
51082;SDS011;37131;42.694;23.350;2023-10-13T05:37:59;5.55;;;3.33;;
51082;SDS011;37131;42.694;23.350;2023-10-13T05:40:56;6.55;;;3.58;;
51082;SDS011;37131;42.694;23.350;2023-10-13T05:43:41;5.97;;;3.22;;
51082;SDS011;37131;42.694;23.350;2023-10-13T05:46:24;7.40;;;3.08;;
51082;SDS011;37131;42.694;23.350;2023-10-13T05:48:50;6.88;;;3.60;;
51082;SDS011;37131;42.694;23.350;2023-10-13T05:54:10;12.18;;;4.28;;
51082;SDS011;37131;42.694;23.350;2023-10-13T05:56:42;7.28;;;3.30;;
51082;SDS011;37131;42.694;23.350;2023-10-13T05:59:31;6.88;;;3.13;;
51082;SDS011;37131;42.694;23.350;2023-10-13T06:02:17;7.93;;;3.40;;
51082;SDS011;37131;42.694;23.350;2023-10-13T06:05:02;7.88;;;3.60;;
51082;SDS011;37131;42.694;23.350;2023-10-13T06:07:53;6.13;;;3.97;;
51082;SDS011;37131;42.694;23.350;2023-10-13T06:10:37;14.10;;;4.35;;
51082;SDS011;37131;42.694;23.350;2023-10-13T06:13:21;6.53;;;3.67;;
51082;SDS011;37131;42.694;23.350;2023-10-13T06:16:08;7.15;;;3.88;;
51082;SDS011;37131;42.694;23.350;2023-10-13T06:18:53;7.88;;;3.20;;
51082;SDS011;37131;42.694;23.350;2023-10-13T06:21:37;9.15;;;3.17;;
51082;SDS011;37131;42.694;23.350;2023-10-13T06:24:24;18.45;;;4.70;;
51082;SDS011;37131;42.694;23.350;2023-10-13T06:27:08;5.82;;;3.00;;
51082;SDS011;37131;42.694;23.350;2023-10-13T06:29:52;4.93;;;3.25;;
51082;SDS011;37131;42.694;23.350;2023-10-13T06:32:18;6.07;;;3.65;;
51082;SDS011;37131;42.694;23.350;2023-10-13T06:34:57;6.32;;;3.67;;
51082;SDS011;37131;42.694;23.350;2023-10-13T06:37:26;20.13;;;4.72;;
51082;SDS011;37131;42.694;23.350;2023-10-13T06:40:03;4.05;;;2.00;;
51082;SDS011;37131;42.694;23.350;2023-10-13T06:45:38;14.63;;;3.33;;
51082;SDS011;37131;42.694;23.350;2023-10-13T06:48:04;4.18;;;3.42;;
51082;SDS011;37131;42.694;23.350;2023-10-13T06:50:30;8.02;;;4.80;;
51082;SDS011;37131;42.694;23.350;2023-10-13T06:53:04;28.13;;;7.30;;
51082;SDS011;37131;42.694;23.350;2023-10-13T06:55:29;8.02;;;4.50;;
51082;SDS011;37131;42.694;23.350;2023-10-13T06:58:00;6.15;;;4.40;;
51082;SDS011;37131;42.694;23.350;2023-10-13T07:00:31;7.22;;;3.83;;
51082;SDS011;37131;42.694;23.350;2023-10-13T07:03:00;13.55;;;4.85;;
51082;SDS011;37131;42.694;23.350;2023-10-13T07:05:36;7.35;;;3.35;;
51082;SDS011;37131;42.694;23.350;2023-10-13T07:08:03;11.98;;;4.68;;
51082;SDS011;37131;42.694;23.350;2023-10-13T07:10:30;22.60;;;6.45;;
51082;SDS011;37131;42.694;23.350;2023-10-13T07:12:57;7.07;;;2.80;;
51082;SDS011;37131;42.694;23.350;2023-10-13T07:15:25;18.75;;;5.47;;
51082;SDS011;37131;42.694;23.350;2023-10-13T07:17:54;16.85;;;4.60;;
51082;SDS011;37131;42.694;23.350;2023-10-13T07:20:21;24.10;;;5.95;;
51082;SDS011;37131;42.694;23.350;2023-10-13T07:22:50;8.00;;;3.95;;
51082;SDS011;37131;42.694;23.350;2023-10-13T07:25:36;7.57;;;4.03;;
51082;SDS011;37131;42.694;23.350;2023-10-13T07:28:03;7.85;;;3.80;;
51082;SDS011;37131;42.694;23.350;2023-10-13T07:30:35;7.30;;;3.72;;
51082;SDS011;37131;42.694;23.350;2023-10-13T07:33:15;8.45;;;3.03;;
51082;SDS011;37131;42.694;23.350;2023-10-13T07:35:44;10.13;;;4.50;;
51082;SDS011;37131;42.694;23.350;2023-10-13T07:38:18;6.53;;;3.42;;
51082;SDS011;37131;42.694;23.350;2023-10-13T07:40:46;10.15;;;4.32;;
51082;SDS011;37131;42.694;23.350;2023-10-13T07:43:18;5.25;;;3.58;;
51082;SDS011;37131;42.694;23.350;2023-10-13T07:45:46;5.78;;;3.63;;
51082;SDS011;37131;42.694;23.350;2023-10-13T07:48:16;6.60;;;3.65;;
51082;SDS011;37131;42.694;23.350;2023-10-13T07:50:45;14.07;;;5.30;;
51082;SDS011;37131;42.694;23.350;2023-10-13T07:53:26;7.22;;;3.90;;
51082;SDS011;37131;42.694;23.350;2023-10-13T07:55:54;5.55;;;3.20;;
51082;SDS011;37131;42.694;23.350;2023-10-13T07:58:21;11.88;;;5.20;;
51082;SDS011;37131;42.694;23.350;2023-10-13T08:00:50;6.30;;;3.35;;
51082;SDS011;37131;42.694;23.350;2023-10-13T08:03:28;6.25;;;3.67;;
51082;SDS011;37131;42.694;23.350;2023-10-13T08:06:09;16.70;;;4.43;;
51082;SDS011;37131;42.694;23.350;2023-10-13T08:08:36;7.20;;;3.60;;
51082;SDS011;37131;42.694;23.350;2023-10-13T08:13:37;10.02;;;4.63;;
51082;SDS011;37131;42.694;23.350;2023-10-13T08:16:05;9.38;;;4.40;;
51082;SDS011;37131;42.694;23.350;2023-10-13T08:18:34;16.55;;;5.60;;
51082;SDS011;37131;42.694;23.350;2023-10-13T08:21:01;7.50;;;4.22;;
51082;SDS011;37131;42.694;23.350;2023-10-13T08:23:41;9.07;;;4.55;;
51082;SDS011;37131;42.694;23.350;2023-10-13T08:26:32;5.57;;;3.88;;
51082;SDS011;37131;42.694;23.350;2023-10-13T08:29:01;8.55;;;3.63;;
51082;SDS011;37131;42.694;23.350;2023-10-13T08:31:46;6.70;;;4.28;;
51082;SDS011;37131;42.694;23.350;2023-10-13T08:34:35;12.23;;;5.50;;
51082;SDS011;37131;42.694;23.350;2023-10-13T08:37:24;13.05;;;5.22;;
51082;SDS011;37131;42.694;23.350;2023-10-13T08:39:53;15.07;;;4.80;;
51082;SDS011;37131;42.694;23.350;2023-10-13T08:42:28;5.43;;;2.80;;
51082;SDS011;37131;42.694;23.350;2023-10-13T08:47:33;22.83;;;4.85;;
51082;SDS011;37131;42.694;23.350;2023-10-13T08:50:02;15.70;;;4.55;;
51082;SDS011;37131;42.694;23.350;2023-10-13T08:52:52;11.75;;;4.28;;
51082;SDS011;37131;42.694;23.350;2023-10-13T08:55:21;12.52;;;3.65;;
51082;SDS011;37131;42.694;23.350;2023-10-13T08:58:25;23.75;;;4.85;;
51082;SDS011;37131;42.694;23.350;2023-10-13T09:01:10;13.43;;;4.70;;
51082;SDS011;37131;42.694;23.350;2023-10-13T09:03:40;5.60;;;2.83;;
51082;SDS011;37131;42.694;23.350;2023-10-13T09:06:11;13.57;;;4.30;;
51082;SDS011;37131;42.694;23.350;2023-10-13T09:08:40;7.78;;;4.25;;
51082;SDS011;37131;42.694;23.350;2023-10-13T09:11:24;6.03;;;2.83;;
51082;SDS011;37131;42.694;23.350;2023-10-13T09:13:52;8.68;;;3.75;;
51082;SDS011;37131;42.694;23.350;2023-10-13T09:16:18;8.55;;;3.50;;
51082;SDS011;37131;42.694;23.350;2023-10-13T09:19:02;10.35;;;3.95;;
51082;SDS011;37131;42.694;23.350;2023-10-13T09:21:37;11.48;;;3.75;;
51082;SDS011;37131;42.694;23.350;2023-10-13T09:24:05;7.82;;;3.60;;
51082;SDS011;37131;42.694;23.350;2023-10-13T09:26:52;6.95;;;3.35;;
51082;SDS011;37131;42.694;23.350;2023-10-13T09:29:20;8.60;;;3.95;;
51082;SDS011;37131;42.694;23.350;2023-10-13T09:31:46;9.27;;;4.45;;
51082;SDS011;37131;42.694;23.350;2023-10-13T09:34:22;9.30;;;4.63;;
51082;SDS011;37131;42.694;23.350;2023-10-13T09:36:49;16.63;;;5.72;;
51082;SDS011;37131;42.694;23.350;2023-10-13T09:39:21;7.60;;;3.92;;
51082;SDS011;37131;42.694;23.350;2023-10-13T09:41:55;12.55;;;4.60;;
51082;SDS011;37131;42.694;23.350;2023-10-13T09:44:24;25.20;;;6.45;;
51082;SDS011;37131;42.694;23.350;2023-10-13T09:46:55;7.45;;;4.13;;
51082;SDS011;37131;42.694;23.350;2023-10-13T09:49:31;20.27;;;6.43;;
51082;SDS011;37131;42.694;23.350;2023-10-13T09:52:14;13.18;;;5.63;;
51082;SDS011;37131;42.694;23.350;2023-10-13T09:54:58;12.95;;;4.53;;
51082;SDS011;37131;42.694;23.350;2023-10-13T09:57:34;17.67;;;5.30;;
51082;SDS011;37131;42.694;23.350;2023-10-13T10:00:12;6.80;;;3.60;;
51082;SDS011;37131;42.694;23.350;2023-10-13T10:03:09;6.03;;;3.72;;
51082;SDS011;37131;42.694;23.350;2023-10-13T10:05:58;6.63;;;3.95;;
51082;SDS011;37131;42.694;23.350;2023-10-13T10:08:29;7.80;;;3.85;;
51082;SDS011;37131;42.694;23.350;2023-10-13T10:16:07;8.73;;;3.65;;
51082;SDS011;37131;42.694;23.350;2023-10-13T10:18:40;10.15;;;4.40;;
51082;SDS011;37131;42.694;23.350;2023-10-13T10:21:06;6.18;;;3.25;;
51082;SDS011;37131;42.694;23.350;2023-10-13T10:23:32;7.60;;;3.70;;
51082;SDS011;37131;42.694;23.350;2023-10-13T10:28:43;16.77;;;5.22;;
51082;SDS011;37131;42.694;23.350;2023-10-13T10:31:09;7.63;;;3.75;;
51082;SDS011;37131;42.694;23.350;2023-10-13T10:33:40;9.23;;;4.10;;
51082;SDS011;37131;42.694;23.350;2023-10-13T10:36:06;6.40;;;3.53;;
51082;SDS011;37131;42.694;23.350;2023-10-13T10:38:51;4.07;;;3.00;;
51082;SDS011;37131;42.694;23.350;2023-10-13T10:41:27;8.43;;;4.28;;
51082;SDS011;37131;42.694;23.350;2023-10-13T10:44:23;7.18;;;3.80;;
51082;SDS011;37131;42.694;23.350;2023-10-13T10:46:49;17.13;;;7.80;;
51082;SDS011;37131;42.694;23.350;2023-10-13T10:49:23;8.88;;;4.40;;
51082;SDS011;37131;42.694;23.350;2023-10-13T10:52:00;7.60;;;4.20;;
51082;SDS011;37131;42.694;23.350;2023-10-13T10:54:26;5.55;;;3.75;;
51082;SDS011;37131;42.694;23.350;2023-10-13T10:56:56;6.20;;;5.30;;
51082;SDS011;37131;42.694;23.350;2023-10-13T10:59:35;7.30;;;5.40;;
51082;SDS011;37131;42.694;23.350;2023-10-13T11:02:02;6.38;;;5.57;;
51082;SDS011;37131;42.694;23.350;2023-10-13T11:04:28;8.52;;;5.95;;
51082;SDS011;37131;42.694;23.350;2023-10-13T11:06:59;5.78;;;5.03;;
51082;SDS011;37131;42.694;23.350;2023-10-13T11:09:25;5.43;;;5.00;;
51082;SDS011;37131;42.694;23.350;2023-10-13T11:12:08;5.97;;;5.25;;
51082;SDS011;37131;42.694;23.350;2023-10-13T11:14:44;14.35;;;5.97;;
51082;SDS011;37131;42.694;23.350;2023-10-13T11:17:21;5.28;;;4.50;;
51082;SDS011;37131;42.694;23.350;2023-10-13T11:20:08;6.53;;;5.20;;
51082;SDS011;37131;42.694;23.350;2023-10-13T11:22:50;5.78;;;5.25;;
51082;SDS011;37131;42.694;23.350;2023-10-13T11:25:27;5.93;;;5.10;;
51082;SDS011;37131;42.694;23.350;2023-10-13T11:28:09;7.10;;;5.32;;
51082;SDS011;37131;42.694;23.350;2023-10-13T11:30:52;7.00;;;5.80;;
51082;SDS011;37131;42.694;23.350;2023-10-13T11:33:21;13.35;;;7.07;;
51082;SDS011;37131;42.694;23.350;2023-10-13T11:35:52;8.95;;;8.15;;
51082;SDS011;37131;42.694;23.350;2023-10-13T11:38:18;16.95;;;11.98;;
51082;SDS011;37131;42.694;23.350;2023-10-13T11:40:51;14.88;;;12.27;;
51082;SDS011;37131;42.694;23.350;2023-10-13T11:43:29;16.42;;;14.23;;
51082;SDS011;37131;42.694;23.350;2023-10-13T11:45:56;20.60;;;15.32;;
51082;SDS011;37131;42.694;23.350;2023-10-13T11:48:34;21.27;;;19.27;;
51082;SDS011;37131;42.694;23.350;2023-10-13T11:51:05;39.30;;;35.60;;
51082;SDS011;37131;42.694;23.350;2023-10-13T11:53:37;35.05;;;31.85;;
51082;SDS011;37131;42.694;23.350;2023-10-13T11:56:03;33.83;;;30.92;;
51082;SDS011;37131;42.694;23.350;2023-10-13T11:58:34;35.90;;;32.80;;
51082;SDS011;37131;42.694;23.350;2023-10-13T12:01:03;35.75;;;32.72;;
51082;SDS011;37131;42.694;23.350;2023-10-13T12:03:56;37.17;;;33.80;;
51082;SDS011;37131;42.694;23.350;2023-10-13T12:06:39;32.70;;;29.90;;
51082;SDS011;37131;42.694;23.350;2023-10-13T12:09:05;38.90;;;35.70;;
51082;SDS011;37131;42.694;23.350;2023-10-13T12:11:38;44.63;;;40.92;;
51082;SDS011;37131;42.694;23.350;2023-10-13T12:14:06;44.65;;;40.67;;
51082;SDS011;37131;42.694;23.350;2023-10-13T12:16:58;45.42;;;41.67;;
51082;SDS011;37131;42.694;23.350;2023-10-13T12:19:29;47.25;;;43.25;;
51082;SDS011;37131;42.694;23.350;2023-10-13T12:21:56;45.83;;;41.75;;
51082;SDS011;37131;42.694;23.350;2023-10-13T12:24:27;47.60;;;43.47;;
51082;SDS011;37131;42.694;23.350;2023-10-13T12:27:08;45.58;;;41.72;;
51082;SDS011;37131;42.694;23.350;2023-10-13T12:30:00;86.15;;;78.18;;
51082;SDS011;37131;42.694;23.350;2023-10-13T12:32:32;78.32;;;71.57;;
51082;SDS011;37131;42.694;23.350;2023-10-13T12:34:59;87.43;;;79.53;;
51082;SDS011;37131;42.694;23.350;2023-10-13T12:37:26;89.63;;;81.50;;
51082;SDS011;37131;42.694;23.350;2023-10-13T12:40:02;87.28;;;79.32;;
51082;SDS011;37131;42.694;23.350;2023-10-13T12:42:46;85.93;;;77.97;;
51082;SDS011;37131;42.694;23.350;2023-10-13T12:45:31;83.53;;;75.80;;
51082;SDS011;37131;42.694;23.350;2023-10-13T12:48:15;82.30;;;74.60;;
51082;SDS011;37131;42.694;23.350;2023-10-13T12:51:02;81.65;;;74.13;;
51082;SDS011;37131;42.694;23.350;2023-10-13T12:53:45;79.22;;;71.65;;
51082;SDS011;37131;42.694;23.350;2023-10-13T12:56:14;80.32;;;72.55;;
51082;SDS011;37131;42.694;23.350;2023-10-13T12:58:41;79.10;;;71.60;;
51082;SDS011;37131;42.694;23.350;2023-10-13T13:01:06;79.88;;;72.10;;
51082;SDS011;37131;42.694;23.350;2023-10-13T13:03:32;77.30;;;70.03;;
51082;SDS011;37131;42.694;23.350;2023-10-13T13:05:58;76.25;;;68.93;;
51082;SDS011;37131;42.694;23.350;2023-10-13T13:08:24;76.18;;;68.68;;
51082;SDS011;37131;42.694;23.350;2023-10-13T13:10:50;76.95;;;69.38;;
51082;SDS011;37131;42.694;23.350;2023-10-13T13:13:17;75.85;;;68.25;;
51082;SDS011;37131;42.694;23.350;2023-10-13T13:15:49;70.53;;;63.85;;
51082;SDS011;37131;42.694;23.350;2023-10-13T13:18:15;71.95;;;65.05;;
51082;SDS011;37131;42.694;23.350;2023-10-13T13:20:40;72.82;;;65.82;;
51082;SDS011;37131;42.694;23.350;2023-10-13T13:23:18;71.20;;;64.35;;
51082;SDS011;37131;42.694;23.350;2023-10-13T13:25:44;69.25;;;62.35;;
51082;SDS011;37131;42.694;23.350;2023-10-13T13:28:10;71.13;;;64.22;;
51082;SDS011;37131;42.694;23.350;2023-10-13T13:30:36;71.05;;;64.28;;
51082;SDS011;37131;42.694;23.350;2023-10-13T13:33:03;71.53;;;64.35;;
51082;SDS011;37131;42.694;23.350;2023-10-13T13:35:36;71.85;;;64.93;;
51082;SDS011;37131;42.694;23.350;2023-10-13T13:38:02;72.47;;;65.43;;
51082;SDS011;37131;42.694;23.350;2023-10-13T13:41:00;74.10;;;66.78;;
51082;SDS011;37131;42.694;23.350;2023-10-13T13:43:34;74.45;;;67.10;;
51082;SDS011;37131;42.694;23.350;2023-10-13T13:46:05;72.38;;;65.35;;
51082;SDS011;37131;42.694;23.350;2023-10-13T13:48:35;70.72;;;63.78;;
51082;SDS011;37131;42.694;23.350;2023-10-13T13:51:04;65.60;;;59.15;;
51082;SDS011;37131;42.694;23.350;2023-10-13T13:53:37;61.50;;;55.33;;
51082;SDS011;37131;42.694;23.350;2023-10-13T13:56:07;63.47;;;57.55;;
51082;SDS011;37131;42.694;23.350;2023-10-13T13:58:33;56.25;;;51.13;;
51082;SDS011;37131;42.694;23.350;2023-10-13T14:01:02;61.45;;;55.60;;
51082;SDS011;37131;42.694;23.350;2023-10-13T14:03:40;58.85;;;53.33;;
51082;SDS011;37131;42.694;23.350;2023-10-13T14:06:19;60.90;;;55.15;;
51082;SDS011;37131;42.694;23.350;2023-10-13T14:08:53;59.50;;;53.83;;
51082;SDS011;37131;42.694;23.350;2023-10-13T14:11:25;61.38;;;55.42;;
51082;SDS011;37131;42.694;23.350;2023-10-13T14:14:03;61.10;;;55.25;;
51082;SDS011;37131;42.694;23.350;2023-10-13T14:19:07;61.83;;;55.67;;
51082;SDS011;37131;42.694;23.350;2023-10-13T14:21:33;62.00;;;55.72;;
51082;SDS011;37131;42.694;23.350;2023-10-13T14:24:00;63.20;;;56.97;;
51082;SDS011;37131;42.694;23.350;2023-10-13T14:26:26;63.17;;;57.00;;
51082;SDS011;37131;42.694;23.350;2023-10-13T14:28:52;62.38;;;56.20;;
51082;SDS011;37131;42.694;23.350;2023-10-13T14:31:31;62.13;;;56.03;;
51082;SDS011;37131;42.694;23.350;2023-10-13T14:33:57;63.38;;;57.33;;
51082;SDS011;37131;42.694;23.350;2023-10-13T14:36:23;65.07;;;58.67;;
51082;SDS011;37131;42.694;23.350;2023-10-13T14:38:53;62.17;;;56.00;;
51082;SDS011;37131;42.694;23.350;2023-10-13T14:41:20;60.80;;;54.63;;
51082;SDS011;37131;42.694;23.350;2023-10-13T14:43:46;63.42;;;56.47;;
51082;SDS011;37131;42.694;23.350;2023-10-13T14:46:17;62.95;;;56.58;;
51082;SDS011;37131;42.694;23.350;2023-10-13T14:48:48;61.67;;;55.25;;
51082;SDS011;37131;42.694;23.350;2023-10-13T14:51:16;55.13;;;49.55;;
51082;SDS011;37131;42.694;23.350;2023-10-13T14:53:42;58.45;;;52.47;;
51082;SDS011;37131;42.694;23.350;2023-10-13T14:56:11;57.45;;;51.85;;
51082;SDS011;37131;42.694;23.350;2023-10-13T14:58:37;59.05;;;53.25;;
51082;SDS011;37131;42.694;23.350;2023-10-13T15:01:17;58.83;;;52.45;;
51082;SDS011;37131;42.694;23.350;2023-10-13T15:03:44;58.72;;;52.97;;
51082;SDS011;37131;42.694;23.350;2023-10-13T15:06:20;55.60;;;50.10;;
51082;SDS011;37131;42.694;23.350;2023-10-13T15:08:50;56.17;;;50.58;;
51082;SDS011;37131;42.694;23.350;2023-10-13T15:11:16;55.17;;;49.78;;
51082;SDS011;37131;42.694;23.350;2023-10-13T15:13:45;56.28;;;50.60;;
51082;SDS011;37131;42.694;23.350;2023-10-13T15:18:42;53.70;;;48.25;;
51082;SDS011;37131;42.694;23.350;2023-10-13T15:21:11;54.08;;;48.58;;
51082;SDS011;37131;42.694;23.350;2023-10-13T15:24:02;54.58;;;49.08;;
51082;SDS011;37131;42.694;23.350;2023-10-13T15:26:42;60.38;;;49.42;;
51082;SDS011;37131;42.694;23.350;2023-10-13T15:29:13;55.80;;;49.92;;
51082;SDS011;37131;42.694;23.350;2023-10-13T15:31:41;54.60;;;49.08;;